sensor_id;sensor_type;location;lat;lon;timestamp;pressure;altitude;pressure_sealevel;temperature;humidity
46412;BME280;32113;42.012;24.870;2023-02-02T00:01:16;99029.22;;;7.29;39.41
46412;BME280;32113;42.012;24.870;2023-02-02T00:03:42;99021.56;;;7.22;39.37
46412;BME280;32113;42.012;24.870;2023-02-02T00:06:07;99022.38;;;7.23;39.64
46412;BME280;32113;42.012;24.870;2023-02-02T00:08:32;99030.03;;;7.20;40.01
46412;BME280;32113;42.012;24.870;2023-02-02T00:10:59;99024.94;;;7.18;39.74
46412;BME280;32113;42.012;24.870;2023-02-02T00:13:25;99027.50;;;7.21;40.23
46412;BME280;32113;42.012;24.870;2023-02-02T00:15:51;99030.88;;;7.14;40.38
46412;BME280;32113;42.012;24.870;2023-02-02T00:18:16;99036.00;;;7.16;41.01
46412;BME280;32113;42.012;24.870;2023-02-02T00:20:42;99041.06;;;7.13;40.85
46412;BME280;32113;42.012;24.870;2023-02-02T00:23:08;99033.41;;;7.14;39.81
46412;BME280;32113;42.012;24.870;2023-02-02T00:25:34;99053.00;;;7.17;40.27
46412;BME280;32113;42.012;24.870;2023-02-02T00:27:59;99070.00;;;7.15;39.70
46412;BME280;32113;42.012;24.870;2023-02-02T00:30:24;99069.16;;;7.14;39.71
46412;BME280;32113;42.012;24.870;2023-02-02T00:32:49;99075.06;;;7.02;39.85
46412;BME280;32113;42.012;24.870;2023-02-02T00:35:17;99069.97;;;7.04;39.90
46412;BME280;32113;42.012;24.870;2023-02-02T00:37:42;99075.88;;;6.93;39.61
46412;BME280;32113;42.012;24.870;2023-02-02T00:40:08;99079.25;;;6.94;39.58
46412;BME280;32113;42.012;24.870;2023-02-02T00:42:34;99077.53;;;6.91;39.61
46412;BME280;32113;42.012;24.870;2023-02-02T00:44:59;99067.38;;;7.01;39.59
46412;BME280;32113;42.012;24.870;2023-02-02T00:47:47;99058.09;;;7.12;39.39
46412;BME280;32113;42.012;24.870;2023-02-02T00:50:13;99071.72;;;7.19;39.15
46412;BME280;32113;42.012;24.870;2023-02-02T00:52:39;99075.13;;;7.22;39.14
46412;BME280;32113;42.012;24.870;2023-02-02T00:55:05;99072.63;;;7.38;38.53
46412;BME280;32113;42.012;24.870;2023-02-02T00:57:30;99076.81;;;7.16;39.03
46412;BME280;32113;42.012;24.870;2023-02-02T00:59:55;99077.63;;;7.05;39.05
46412;BME280;32113;42.012;24.870;2023-02-02T01:02:21;99069.13;;;7.13;38.55
46412;BME280;32113;42.012;24.870;2023-02-02T01:04:46;99062.34;;;7.15;38.88
46412;BME280;32113;42.012;24.870;2023-02-02T01:07:11;99059.78;;;7.07;38.07
46412;BME280;32113;42.012;24.870;2023-02-02T01:09:36;99058.09;;;7.15;38.09
46412;BME280;32113;42.012;24.870;2023-02-02T01:12:01;99062.41;;;7.33;38.72
46412;BME280;32113;42.012;24.870;2023-02-02T01:14:27;99072.66;;;7.47;38.28
46412;BME280;32113;42.012;24.870;2023-02-02T01:16:52;99078.66;;;7.59;38.09
46412;BME280;32113;42.012;24.870;2023-02-02T01:19:17;99078.66;;;7.71;37.69
46412;BME280;32113;42.012;24.870;2023-02-02T01:21:43;99071.88;;;7.75;37.78
46412;BME280;32113;42.012;24.870;2023-02-02T01:24:08;99068.47;;;7.81;38.67
46412;BME280;32113;42.012;24.870;2023-02-02T01:26:33;99065.94;;;7.92;37.91
46412;BME280;32113;42.012;24.870;2023-02-02T01:28:58;99065.91;;;7.99;38.24
46412;BME280;32113;42.012;24.870;2023-02-02T01:31:24;99070.19;;;8.02;38.06
46412;BME280;32113;42.012;24.870;2023-02-02T01:33:49;99065.91;;;8.07;37.57
46412;BME280;32113;42.012;24.870;2023-02-02T01:36:16;99065.09;;;7.99;38.68
46412;BME280;32113;42.012;24.870;2023-02-02T01:38:42;99070.19;;;7.96;38.57
46412;BME280;32113;42.012;24.870;2023-02-02T01:41:07;99066.78;;;7.81;38.04
46412;BME280;32113;42.012;24.870;2023-02-02T01:46:11;99065.91;;;7.68;38.31
46412;BME280;32113;42.012;24.870;2023-02-02T01:48:37;99071.84;;;7.61;39.70
46412;BME280;32113;42.012;24.870;2023-02-02T01:51:05;99071.00;;;7.59;39.58
46412;BME280;32113;42.012;24.870;2023-02-02T01:53:33;99071.84;;;7.59;39.70
46412;BME280;32113;42.012;24.870;2023-02-02T01:55:58;99070.94;;;7.45;39.04
46412;BME280;32113;42.012;24.870;2023-02-02T01:58:27;99081.16;;;7.51;39.77
46412;BME280;32113;42.012;24.870;2023-02-02T02:00:53;99083.75;;;7.60;39.67
46412;BME280;32113;42.012;24.870;2023-02-02T02:03:19;99086.31;;;7.57;39.51
46412;BME280;32113;42.012;24.870;2023-02-02T02:05:47;99090.56;;;7.63;38.52
46412;BME280;32113;42.012;24.870;2023-02-02T02:08:20;99088.81;;;7.43;38.96
46412;BME280;32113;42.012;24.870;2023-02-02T02:10:47;99078.63;;;7.51;40.02
46412;BME280;32113;42.012;24.870;2023-02-02T02:13:13;99082.06;;;7.62;39.25
46412;BME280;32113;42.012;24.870;2023-02-02T02:15:51;99075.28;;;7.79;39.38
46412;BME280;32113;42.012;24.870;2023-02-02T02:18:43;99071.88;;;7.91;39.28
46412;BME280;32113;42.012;24.870;2023-02-02T02:27:27;99065.06;;;7.80;39.30
46412;BME280;32113;42.012;24.870;2023-02-02T02:42:36;99075.31;;;8.08;39.82
46412;BME280;32113;42.012;24.870;2023-02-02T02:45:02;99074.47;;;8.09;39.78
46412;BME280;32113;42.012;24.870;2023-02-02T02:47:29;99072.75;;;8.11;39.35
46412;BME280;32113;42.012;24.870;2023-02-02T02:49:55;99066.78;;;8.00;39.94
46412;BME280;32113;42.012;24.870;2023-02-02T02:52:20;99065.06;;;7.82;39.60
46412;BME280;32113;42.012;24.870;2023-02-02T02:54:52;99058.22;;;7.70;41.41
46412;BME280;32113;42.012;24.870;2023-02-02T10:41:24;98952.66;;;16.71;23.22
46412;BME280;32113;42.012;24.870;2023-02-02T10:49:42;98949.94;;;16.74;22.84
46412;BME280;32113;42.012;24.870;2023-02-02T10:51:44;98955.38;;;16.90;22.85
46412;BME280;32113;42.012;24.870;2023-02-02T10:54:24;98951.91;;;16.91;23.01
46412;BME280;32113;42.012;24.870;2023-02-02T10:56:53;98942.97;;;16.76;22.65
46412;BME280;32113;42.012;24.870;2023-02-02T10:59:32;98931.91;;;16.95;22.67
46412;BME280;32113;42.012;24.870;2023-02-02T11:02:01;98929.72;;;17.08;22.67
46412;BME280;32113;42.012;24.870;2023-02-02T11:04:26;98927.72;;;17.15;22.79
46412;BME280;32113;42.012;24.870;2023-02-02T11:07:11;98906.59;;;17.02;22.55
46412;BME280;32113;42.012;24.870;2023-02-02T11:09:44;98921.50;;;16.97;22.31
46412;BME280;32113;42.012;24.870;2023-02-02T11:12:22;98903.22;;;17.00;22.56
46412;BME280;32113;42.012;24.870;2023-02-02T11:14:59;98909.03;;;17.29;22.68
46412;BME280;32113;42.012;24.870;2023-02-02T11:17:30;98903.00;;;17.28;22.60
46412;BME280;32113;42.012;24.870;2023-02-02T11:19:55;98906.50;;;17.05;22.48
46412;BME280;32113;42.012;24.870;2023-02-02T11:22:29;98893.63;;;17.02;22.49
46412;BME280;32113;42.012;24.870;2023-02-02T11:24:55;98882.41;;;17.01;22.73
46412;BME280;32113;42.012;24.870;2023-02-02T11:27:21;98885.59;;;17.10;22.99
46412;BME280;32113;42.012;24.870;2023-02-02T11:29:50;98874.59;;;17.25;22.49
46412;BME280;32113;42.012;24.870;2023-02-02T11:37:25;98870.91;;;16.86;20.98
46412;BME280;32113;42.012;24.870;2023-02-02T11:39:51;98871.09;;;16.59;20.94
46412;BME280;32113;42.012;24.870;2023-02-02T11:42:17;98852.72;;;16.65;21.39
46412;BME280;32113;42.012;24.870;2023-02-02T11:44:48;98846.50;;;16.70;20.59
46412;BME280;32113;42.012;24.870;2023-02-02T11:47:22;98850.06;;;16.45;20.44
46412;BME280;32113;42.012;24.870;2023-02-02T11:49:49;98841.94;;;16.54;20.74
46412;BME280;32113;42.012;24.870;2023-02-02T11:52:19;98843.66;;;16.31;21.33
46412;BME280;32113;42.012;24.870;2023-02-02T11:54:50;98833.41;;;16.28;21.44
46412;BME280;32113;42.012;24.870;2023-02-02T11:57:19;98832.34;;;16.34;21.58
46412;BME280;32113;42.012;24.870;2023-02-02T11:59:46;98825.03;;;16.44;21.75
46412;BME280;32113;42.012;24.870;2023-02-02T12:04:37;98811.31;;;16.64;21.28
46412;BME280;32113;42.012;24.870;2023-02-02T12:07:16;98809.56;;;16.87;21.20
46412;BME280;32113;42.012;24.870;2023-02-02T12:09:42;98800.56;;;16.95;20.51
46412;BME280;32113;42.012;24.870;2023-02-02T12:12:22;98808.81;;;16.85;20.75
46412;BME280;32113;42.012;24.870;2023-02-02T12:15:07;98807.25;;;16.80;20.40
46412;BME280;32113;42.012;24.870;2023-02-02T12:17:36;98804.47;;;16.40;20.30
46412;BME280;32113;42.012;24.870;2023-02-02T12:30:41;98793.00;;;16.24;20.94
46412;BME280;32113;42.012;24.870;2023-02-02T12:35:47;98782.59;;;16.25;20.78
46412;BME280;32113;42.012;24.870;2023-02-02T12:38:19;98786.69;;;16.31;20.77
46412;BME280;32113;42.012;24.870;2023-02-02T12:43:44;98780.00;;;16.25;20.68
46412;BME280;32113;42.012;24.870;2023-02-02T12:58:48;98796.19;;;15.83;21.88
46412;BME280;32113;42.012;24.870;2023-02-02T13:01:24;98791.69;;;15.88;22.13
46412;BME280;32113;42.012;24.870;2023-02-02T13:04:18;98789.00;;;15.91;22.11
46412;BME280;32113;42.012;24.870;2023-02-02T13:09:43;98786.09;;;15.51;22.04
46412;BME280;32113;42.012;24.870;2023-02-02T13:12:12;98779.97;;;15.54;22.45
46412;BME280;32113;42.012;24.870;2023-02-02T13:15:21;98780.66;;;15.33;22.56
46412;BME280;32113;42.012;24.870;2023-02-02T13:18:13;98778.22;;;15.03;22.63
46412;BME280;32113;42.012;24.870;2023-02-02T13:22:41;98789.88;;;14.88;22.96
46412;BME280;32113;42.012;24.870;2023-02-02T13:25:13;98784.50;;;14.94;23.43
46412;BME280;32113;42.012;24.870;2023-02-02T13:27:41;98786.41;;;14.89;23.15
46412;BME280;32113;42.012;24.870;2023-02-02T13:32:52;98787.34;;;15.14;23.20
46412;BME280;32113;42.012;24.870;2023-02-02T13:35:26;98787.66;;;15.04;23.10
46412;BME280;32113;42.012;24.870;2023-02-02T13:37:54;98787.19;;;15.18;23.32
46412;BME280;32113;42.012;24.870;2023-02-02T13:40:26;98781.06;;;15.21;23.33
46412;BME280;32113;42.012;24.870;2023-02-02T13:45:35;98787.66;;;15.04;22.91
46412;BME280;32113;42.012;24.870;2023-02-02T13:48:50;98781.59;;;15.05;22.91
46412;BME280;32113;42.012;24.870;2023-02-02T13:51:04;98786.41;;;15.16;23.13
46412;BME280;32113;42.012;24.870;2023-02-02T13:58:56;98785.72;;;15.11;22.76
46412;BME280;32113;42.012;24.870;2023-02-02T14:01:24;98783.44;;;15.02;22.98
46412;BME280;32113;42.012;24.870;2023-02-02T14:03:54;98782.13;;;15.15;22.67
46412;BME280;32113;42.012;24.870;2023-02-02T14:06:21;98778.09;;;15.06;22.65
46412;BME280;32113;42.012;24.870;2023-02-02T14:08:53;98779.59;;;15.14;23.15
46412;BME280;32113;42.012;24.870;2023-02-02T14:11:20;98774.94;;;15.23;23.11
46412;BME280;32113;42.012;24.870;2023-02-02T14:13:47;98778.97;;;15.32;23.44
46412;BME280;32113;42.012;24.870;2023-02-02T14:26:43;98777.97;;;15.36;23.44
46412;BME280;32113;42.012;24.870;2023-02-02T14:34:40;98815.84;;;15.37;24.56
46412;BME280;32113;42.012;24.870;2023-02-02T14:50:12;98837.50;;;14.21;30.25
46412;BME280;32113;42.012;24.870;2023-02-02T14:52:39;98838.56;;;14.13;30.58
46412;BME280;32113;42.012;24.870;2023-02-02T14:55:05;98847.88;;;14.19;30.62
46412;BME280;32113;42.012;24.870;2023-02-02T14:57:40;98858.19;;;14.19;30.77
46412;BME280;32113;42.012;24.870;2023-02-02T15:00:18;98863.34;;;14.19;30.68
46412;BME280;32113;42.012;24.870;2023-02-02T15:02:44;98854.00;;;14.15;31.29
46412;BME280;32113;42.012;24.870;2023-02-02T15:13:12;98849.69;;;13.84;31.93
46412;BME280;32113;42.012;24.870;2023-02-02T15:15:40;98843.78;;;13.78;32.10
46412;BME280;32113;42.012;24.870;2023-02-02T15:18:17;98838.59;;;13.80;32.20
46412;BME280;32113;42.012;24.870;2023-02-02T15:20:46;98837.47;;;13.90;31.84
46412;BME280;32113;42.012;24.870;2023-02-02T15:33:42;98829.66;;;12.89;30.39
46412;BME280;32113;42.012;24.870;2023-02-02T15:36:13;98830.97;;;12.69;30.97
46412;BME280;32113;42.012;24.870;2023-02-02T15:38:40;98840.19;;;12.78;31.43
46412;BME280;32113;42.012;24.870;2023-02-02T15:41:11;98844.22;;;12.90;31.08
46412;BME280;32113;42.012;24.870;2023-02-02T15:43:40;98850.06;;;12.97;30.55
46412;BME280;32113;42.012;24.870;2023-02-02T15:46:08;98844.47;;;13.16;30.86
46412;BME280;32113;42.012;24.870;2023-02-02T15:48:35;98847.78;;;13.21;30.81
46412;BME280;32113;42.012;24.870;2023-02-02T15:51:05;98862.38;;;13.22;31.04
46412;BME280;32113;42.012;24.870;2023-02-02T15:56:09;98877.50;;;13.36;31.28
46412;BME280;32113;42.012;24.870;2023-02-02T15:58:45;98874.00;;;13.38;30.92
46412;BME280;32113;42.012;24.870;2023-02-02T16:01:17;98883.28;;;13.46;31.18
46412;BME280;32113;42.012;24.870;2023-02-02T16:03:49;98889.19;;;13.51;30.83
46412;BME280;32113;42.012;24.870;2023-02-02T16:06:16;98894.38;;;13.49;31.24
46412;BME280;32113;42.012;24.870;2023-02-02T16:08:42;98890.16;;;13.45;31.12
46412;BME280;32113;42.012;24.870;2023-02-02T16:11:13;98889.22;;;13.49;30.86
46412;BME280;32113;42.012;24.870;2023-02-02T16:13:39;98894.41;;;13.46;31.35
46412;BME280;32113;42.012;24.870;2023-02-02T16:16:19;98902.28;;;13.42;31.66
46412;BME280;32113;42.012;24.870;2023-02-02T16:18:45;98910.00;;;13.42;31.73
46412;BME280;32113;42.012;24.870;2023-02-02T16:21:13;98934.16;;;13.37;32.08
46412;BME280;32113;42.012;24.870;2023-02-02T16:23:40;98936.78;;;13.34;32.04
46412;BME280;32113;42.012;24.870;2023-02-02T16:26:06;98954.25;;;13.23;31.32
46412;BME280;32113;42.012;24.870;2023-02-02T16:28:31;98975.66;;;13.25;31.58
46412;BME280;32113;42.012;24.870;2023-02-02T16:30:58;99000.44;;;13.31;31.71
46412;BME280;32113;42.012;24.870;2023-02-02T16:33:37;99039.94;;;13.31;31.90
46412;BME280;32113;42.012;24.870;2023-02-02T16:36:14;99062.63;;;12.69;34.86
46412;BME280;32113;42.012;24.870;2023-02-02T16:38:40;99079.19;;;12.56;35.57
46412;BME280;32113;42.012;24.870;2023-02-02T16:41:09;99108.56;;;12.42;39.86
46412;BME280;32113;42.012;24.870;2023-02-02T16:43:36;99113.22;;;12.21;42.66
46412;BME280;32113;42.012;24.870;2023-02-02T16:46:11;99142.28;;;11.65;46.98
46412;BME280;32113;42.012;24.870;2023-02-02T16:48:38;99162.50;;;11.21;49.40
46412;BME280;32113;42.012;24.870;2023-02-02T16:53:29;99206.75;;;10.57;53.25
46412;BME280;32113;42.012;24.870;2023-02-02T16:55:55;99219.78;;;10.20;55.70
46412;BME280;32113;42.012;24.870;2023-02-02T16:58:22;99226.75;;;9.94;56.58
46412;BME280;32113;42.012;24.870;2023-02-02T17:03:34;99244.94;;;9.24;57.80
46412;BME280;32113;42.012;24.870;2023-02-02T17:06:00;99268.84;;;8.84;59.31
46412;BME280;32113;42.012;24.870;2023-02-02T17:08:33;99267.97;;;8.68;61.93
46412;BME280;32113;42.012;24.870;2023-02-02T17:11:00;99273.88;;;8.47;63.00
46412;BME280;32113;42.012;24.870;2023-02-02T17:15:53;99293.41;;;8.15;65.26
46412;BME280;32113;42.012;24.870;2023-02-02T17:18:19;99291.72;;;8.23;66.05
46412;BME280;32113;42.012;24.870;2023-02-02T17:20:44;99292.50;;;7.97;64.98
46412;BME280;32113;42.012;24.870;2023-02-02T17:23:14;99296.69;;;7.87;65.88
46412;BME280;32113;42.012;24.870;2023-02-02T17:25:41;99289.84;;;7.83;67.27
46412;BME280;32113;42.012;24.870;2023-02-02T17:28:11;99289.00;;;7.86;67.32
46412;BME280;32113;42.012;24.870;2023-02-02T17:30:41;99286.41;;;7.70;67.18
46412;BME280;32113;42.012;24.870;2023-02-02T17:33:14;99291.44;;;7.55;66.69
46412;BME280;32113;42.012;24.870;2023-02-02T17:35:39;99300.75;;;7.51;66.93
46412;BME280;32113;42.012;24.870;2023-02-02T17:38:05;99279.38;;;7.36;66.47
46412;BME280;32113;42.012;24.870;2023-02-02T17:40:30;99269.13;;;7.29;66.73
46412;BME280;32113;42.012;24.870;2023-02-02T17:42:56;99252.03;;;7.14;68.01
46412;BME280;32113;42.012;24.870;2023-02-02T17:45:29;99249.50;;;7.14;67.29
46412;BME280;32113;42.012;24.870;2023-02-02T17:47:55;99236.72;;;7.17;68.06
46412;BME280;32113;42.012;24.870;2023-02-02T17:50:20;99226.53;;;7.14;68.26
46412;BME280;32113;42.012;24.870;2023-02-02T17:52:46;99219.78;;;7.25;68.85
46412;BME280;32113;42.012;24.870;2023-02-02T17:55:22;99205.22;;;7.07;69.58
46412;BME280;32113;42.012;24.870;2023-02-02T17:57:48;99207.91;;;7.38;69.65
46412;BME280;32113;42.012;24.870;2023-02-02T18:00:14;99206.25;;;7.45;65.07
46412;BME280;32113;42.012;24.870;2023-02-02T18:02:40;99216.53;;;7.57;66.14
46412;BME280;32113;42.012;24.870;2023-02-02T18:05:05;99211.50;;;7.79;68.28
46412;BME280;32113;42.012;24.870;2023-02-02T18:07:31;99211.56;;;7.98;67.90
46412;BME280;32113;42.012;24.870;2023-02-02T18:09:56;99200.53;;;8.13;66.18
46412;BME280;32113;42.012;24.870;2023-02-02T18:12:21;99209.03;;;8.09;65.27
46412;BME280;32113;42.012;24.870;2023-02-02T18:14:47;99214.13;;;8.01;63.07
46412;BME280;32113;42.012;24.870;2023-02-02T18:17:12;99211.53;;;7.84;60.50
46412;BME280;32113;42.012;24.870;2023-02-02T18:19:37;99211.47;;;7.65;59.64
46412;BME280;32113;42.012;24.870;2023-02-02T18:22:03;99211.47;;;7.73;59.55
46412;BME280;32113;42.012;24.870;2023-02-02T18:24:30;99191.00;;;7.57;60.74
46412;BME280;32113;42.012;24.870;2023-02-02T18:26:56;99184.97;;;7.46;60.49
46412;BME280;32113;42.012;24.870;2023-02-02T18:29:21;99199.50;;;7.55;61.35
46412;BME280;32113;42.012;24.870;2023-02-02T18:31:46;99195.28;;;7.66;59.47
46412;BME280;32113;42.012;24.870;2023-02-02T18:34:11;99194.34;;;7.44;58.36
46412;BME280;32113;42.012;24.870;2023-02-02T18:36:37;99197.69;;;7.32;58.89
46412;BME280;32113;42.012;24.870;2023-02-02T18:39:04;99190.13;;;7.51;57.76
46412;BME280;32113;42.012;24.870;2023-02-02T18:41:29;99183.34;;;7.57;53.51
46412;BME280;32113;42.012;24.870;2023-02-02T18:43:55;99165.44;;;7.51;52.22
46412;BME280;32113;42.012;24.870;2023-02-02T18:46:20;99170.53;;;7.46;53.71
46412;BME280;32113;42.012;24.870;2023-02-02T18:48:46;99159.50;;;7.57;53.06
46412;BME280;32113;42.012;24.870;2023-02-02T18:51:12;99155.22;;;7.53;52.44
46412;BME280;32113;42.012;24.870;2023-02-02T18:53:42;99158.66;;;7.56;54.11
46412;BME280;32113;42.012;24.870;2023-02-02T18:56:08;99172.31;;;7.74;53.74
46412;BME280;32113;42.012;24.870;2023-02-02T18:58:34;99184.28;;;7.86;53.48
46412;BME280;32113;42.012;24.870;2023-02-02T19:01:04;99184.22;;;7.66;52.95
46412;BME280;32113;42.012;24.870;2023-02-02T19:03:29;99197.88;;;7.77;52.97
46412;BME280;32113;42.012;24.870;2023-02-02T19:05:55;99181.69;;;7.78;52.46
46412;BME280;32113;42.012;24.870;2023-02-02T19:08:39;99203.00;;;7.80;52.68
46412;BME280;32113;42.012;24.870;2023-02-02T19:11:07;99207.28;;;7.89;53.43
46412;BME280;32113;42.012;24.870;2023-02-02T19:13:35;99203.88;;;7.85;52.54
46412;BME280;32113;42.012;24.870;2023-02-02T19:16:01;99214.91;;;7.78;52.84
46412;BME280;32113;42.012;24.870;2023-02-02T19:18:29;99212.38;;;7.75;52.27
46412;BME280;32113;42.012;24.870;2023-02-02T19:20:55;99203.78;;;7.63;51.63
46412;BME280;32113;42.012;24.870;2023-02-02T19:23:21;99208.94;;;7.79;52.80
46412;BME280;32113;42.012;24.870;2023-02-02T19:25:48;99211.53;;;7.88;51.05
46412;BME280;32113;42.012;24.870;2023-02-02T19:28:19;99214.97;;;7.98;50.82
46412;BME280;32113;42.012;24.870;2023-02-02T19:30:45;99220.94;;;7.94;48.84
46412;BME280;32113;42.012;24.870;2023-02-02T19:33:11;99219.19;;;7.88;49.49
46412;BME280;32113;42.012;24.870;2023-02-02T19:35:38;99222.53;;;7.67;47.97
46412;BME280;32113;42.012;24.870;2023-02-02T19:38:04;99217.44;;;7.69;46.96
46412;BME280;32113;42.012;24.870;2023-02-02T19:40:30;99214.06;;;7.74;47.27
46412;BME280;32113;42.012;24.870;2023-02-02T19:42:57;99205.56;;;7.86;47.48
46412;BME280;32113;42.012;24.870;2023-02-02T19:45:32;99214.91;;;7.78;46.67
46412;BME280;32113;42.012;24.870;2023-02-02T19:47:59;99208.09;;;7.83;47.28
46412;BME280;32113;42.012;24.870;2023-02-02T19:50:25;99204.66;;;7.66;45.92
46412;BME280;32113;42.012;24.870;2023-02-02T19:52:51;99218.25;;;7.65;46.50
46412;BME280;32113;42.012;24.870;2023-02-02T19:57:46;99225.06;;;7.62;45.97
46412;BME280;32113;42.012;24.870;2023-02-02T20:00:14;99224.16;;;7.49;47.22
46412;BME280;32113;42.012;24.870;2023-02-02T20:07:36;99225.00;;;7.52;47.55
46412;BME280;32113;42.012;24.870;2023-02-02T20:10:17;99225.88;;;7.57;48.14
46412;BME280;32113;42.012;24.870;2023-02-02T20:12:42;99229.31;;;7.62;47.96
46412;BME280;32113;42.012;24.870;2023-02-02T20:17:45;99225.06;;;7.62;47.71
46412;BME280;32113;42.012;24.870;2023-02-02T20:20:15;99221.63;;;7.54;48.11
46412;BME280;32113;42.012;24.870;2023-02-02T20:22:45;99224.16;;;7.49;47.88
46412;BME280;32113;42.012;24.870;2023-02-02T20:25:10;99217.28;;;7.36;48.49
46412;BME280;32113;42.012;24.870;2023-02-02T20:27:38;99220.75;;;7.49;48.26
46412;BME280;32113;42.012;24.870;2023-02-02T20:30:15;99220.78;;;7.57;48.80
46412;BME280;32113;42.012;24.870;2023-02-02T20:32:41;99231.03;;;7.65;48.24
46412;BME280;32113;42.012;24.870;2023-02-02T20:35:40;99227.56;;;7.52;48.57
46412;BME280;32113;42.012;24.870;2023-02-02T20:38:00;99226.69;;;7.45;48.29
46412;BME280;32113;42.012;24.870;2023-02-02T20:40:26;99239.47;;;7.53;48.04
46412;BME280;32113;42.012;24.870;2023-02-02T20:42:52;99230.13;;;7.47;48.00
46412;BME280;32113;42.012;24.870;2023-02-02T20:45:18;99236.13;;;7.58;47.85
46412;BME280;32113;42.012;24.870;2023-02-02T20:47:45;99237.81;;;7.56;47.58
46412;BME280;32113;42.012;24.870;2023-02-02T20:50:11;99238.72;;;7.71;47.82
46412;BME280;32113;42.012;24.870;2023-02-02T20:52:38;99238.69;;;7.61;47.67
46412;BME280;32113;42.012;24.870;2023-02-02T20:55:04;99235.25;;;7.58;47.61
46412;BME280;32113;42.012;24.870;2023-02-02T20:57:29;99231.81;;;7.46;48.49
46412;BME280;32113;42.012;24.870;2023-02-02T20:59:56;99233.56;;;7.60;48.54
46412;BME280;32113;42.012;24.870;2023-02-02T21:02:22;99236.97;;;7.60;48.27
46412;BME280;32113;42.012;24.870;2023-02-02T21:04:48;99253.09;;;7.52;47.67
46412;BME280;32113;42.012;24.870;2023-02-02T21:07:14;99251.41;;;7.51;47.74
46412;BME280;32113;42.012;24.870;2023-02-02T21:09:43;99249.66;;;7.46;47.50
46412;BME280;32113;42.012;24.870;2023-02-02T21:12:09;99254.78;;;7.48;46.14
46412;BME280;32113;42.012;24.870;2023-02-02T21:14:34;99269.19;;;7.33;47.16
46412;BME280;32113;42.012;24.870;2023-02-02T21:16:59;99256.47;;;7.47;46.22
46412;BME280;32113;42.012;24.870;2023-02-02T21:19:25;99256.50;;;7.51;45.45
46412;BME280;32113;42.012;24.870;2023-02-02T21:21:50;99266.72;;;7.52;45.30
46412;BME280;32113;42.012;24.870;2023-02-02T21:24:15;99265.84;;;7.47;45.14
46412;BME280;32113;42.012;24.870;2023-02-02T21:26:41;99267.56;;;7.53;44.57
46412;BME280;32113;42.012;24.870;2023-02-02T21:29:06;99273.50;;;7.44;44.37
46412;BME280;32113;42.012;24.870;2023-02-02T21:31:32;99268.41;;;7.50;44.36
46412;BME280;32113;42.012;24.870;2023-02-02T21:33:59;99267.56;;;7.49;44.76
46412;BME280;32113;42.012;24.870;2023-02-02T21:36:32;99277.78;;;7.49;45.16
46412;BME280;32113;42.012;24.870;2023-02-02T21:41:26;99281.94;;;7.36;45.10
46412;BME280;32113;42.012;24.870;2023-02-02T21:43:55;99284.50;;;7.33;45.36
46412;BME280;32113;42.012;24.870;2023-02-02T21:46:23;99293.75;;;7.20;45.12
46412;BME280;32113;42.012;24.870;2023-02-02T21:48:49;99285.25;;;7.21;46.10
46412;BME280;32113;42.012;24.870;2023-02-02T21:53:42;99278.44;;;7.20;45.72
46412;BME280;32113;42.012;24.870;2023-02-02T21:56:08;99287.84;;;7.26;46.12
46412;BME280;32113;42.012;24.870;2023-02-02T21:58:44;99292.06;;;7.21;45.86
46412;BME280;32113;42.012;24.870;2023-02-02T22:01:21;99269.97;;;7.28;46.39
46412;BME280;32113;42.012;24.870;2023-02-02T22:03:48;99277.75;;;7.46;46.17
46412;BME280;32113;42.012;24.870;2023-02-02T22:08:45;99261.50;;;7.30;46.15
46412;BME280;32113;42.012;24.870;2023-02-02T22:11:21;99258.91;;;7.24;46.00
46412;BME280;32113;42.012;24.870;2023-02-02T22:13:47;99258.91;;;7.29;47.15
46412;BME280;32113;42.012;24.870;2023-02-02T22:16:15;99261.56;;;7.43;47.17
46412;BME280;32113;42.012;24.870;2023-02-02T22:18:41;99238.63;;;7.51;47.36
46412;BME280;32113;42.012;24.870;2023-02-02T22:21:06;99239.50;;;7.56;47.02
46412;BME280;32113;42.012;24.870;2023-02-02T22:23:32;99248.81;;;7.44;47.47
46412;BME280;32113;42.012;24.870;2023-02-02T22:25:57;99237.59;;;7.22;46.80
46412;BME280;32113;42.012;24.870;2023-02-02T22:28:26;99238.41;;;7.12;47.95
46412;BME280;32113;42.012;24.870;2023-02-02T22:30:53;99235.03;;;7.16;47.78
46412;BME280;32113;42.012;24.870;2023-02-02T22:33:19;99225.66;;;7.13;47.57
46412;BME280;32113;42.012;24.870;2023-02-02T22:35:45;99237.63;;;7.25;47.47
46412;BME280;32113;42.012;24.870;2023-02-02T22:38:17;99229.16;;;7.31;47.49
46412;BME280;32113;42.012;24.870;2023-02-02T22:40:43;99230.03;;;7.34;47.81
46412;BME280;32113;42.012;24.870;2023-02-02T22:43:09;99238.56;;;7.40;48.13
46412;BME280;32113;42.012;24.870;2023-02-02T22:45:34;99239.47;;;7.51;47.61
46412;BME280;32113;42.012;24.870;2023-02-02T22:47:59;99233.53;;;7.55;47.13
46412;BME280;32113;42.012;24.870;2023-02-02T22:50:26;99236.16;;;7.66;47.75
46412;BME280;32113;42.012;24.870;2023-02-02T22:52:52;99223.31;;;7.55;47.26
46412;BME280;32113;42.012;24.870;2023-02-02T22:55:18;99226.78;;;7.63;47.32
46412;BME280;32113;42.012;24.870;2023-02-02T22:57:43;99232.75;;;7.64;47.64
46412;BME280;32113;42.012;24.870;2023-02-02T23:00:12;99222.53;;;7.67;47.70
46412;BME280;32113;42.012;24.870;2023-02-02T23:02:38;99219.13;;;7.70;47.63
46412;BME280;32113;42.012;24.870;2023-02-02T23:05:05;99214.03;;;7.67;47.73
46412;BME280;32113;42.012;24.870;2023-02-02T23:07:30;99206.31;;;7.60;47.42
46412;BME280;32113;42.012;24.870;2023-02-02T23:09:55;99213.16;;;7.65;48.36
46412;BME280;32113;42.012;24.870;2023-02-02T23:12:21;99213.22;;;7.77;48.33
46412;BME280;32113;42.012;24.870;2023-02-02T23:14:46;99221.78;;;7.87;47.62
46412;BME280;32113;42.012;24.870;2023-02-02T23:17:11;99229.44;;;7.93;46.99
46412;BME280;32113;42.012;24.870;2023-02-02T23:19:36;99230.31;;;8.03;46.18
46412;BME280;32113;42.012;24.870;2023-02-02T23:22:02;99240.56;;;8.15;45.86